Nacogdoches, TX

11:34 PM CDT on June 02, 2015 (GMT -0500)
South Side | | Change Station
CLOSE
Current Station
Personal Weather Station
Location: Nacogdoches, TX
Elevation: 331 ft
Nearby Weather Stations
Active Advisory: Flood Warning Active Notice: Public Information Statement

Elev 331 ft 31.59 °N, 94.66 °W | Updated 5 seconds ago

Clear
Clear
72.1 °F
Feels Like 74 °F
N
0.0
Wind Variable Wind from NW
Gusts 0.0 mph

Today
High -- | Low -- °F
--% Chance of Precip.
Yesterday
High -- | Low -- °F
Precip. -- in
6:14 AM 8:19 PM
Full, 100% visible
Pressure 29.97 in
Visibility 10.0 miles
Clouds Clear
Heat Index 74 °F
Dew Point 63 °F
Humidity 74%
Rainfall 0.00 in
Snow Depth Not available.
UV 0 out of 12
Pollen 5.70 out of 12
Air Quality Not available.
Flu Activity Local Activity
METAR KOCH 030415Z AUTO 00000KT 10SM CLR 17/17 A2997 RMK AO1

More Conditions Fewer Conditions

Pressure 29.97 in
Visibility 10.0 miles
Clouds Clear
Heat Index 74 °F
Dew Point 63 °F
Humidity 74%
Rainfall 0.00 in
Snow Depth Not available.
UV 0 out of 12
Pollen 5.70 out of 12
Air Quality Not available.
Flu Activity Local Activity
METAR KOCH 030415Z AUTO 00000KT 10SM CLR 17/17 A2997 RMK AO1

More Conditions Fewer Conditions

10-Day Weather Forecast

×

Almanac

Astronomy

Jun. 02, 2015 Rise Set
Actual Time
Civil Twilight
Nautical Twilight
Astronomical Twilight
Moon
Length of Visible Light
Length of Day
Tomorrow will be .
, % of the Moon is Illuminated

Today's Extremes

State Highs State Lows

Community

WunderPhotos

Upload Photos

1,826,164 photos uploaded!

WunderBlogs® & News

Nearby

Air Quality

  Air Quality AQ Index Pollutant
Not available.

Snow Depth

Station Depth Elevation

Earthquake Activity

City Distance Mag. Time & Date
Minimum magnitude displayed is 2.5.

Coastal Water Temperatures

Place Temperature

Stations

Nearby Weather Stations

Station Location Temp. Windchill Dew Point Humidity Wind Precip. Elev Updated Type
                   
Flood Warning
Statement as of 3:16 PM CDT on June 02, 2015

The Flood Warning continues for
the Angelina river near Lufkin, Texas.
* Until further notice... or until the warning is cancelled.
* At 700 am Tuesday the stage was 12.6 feet.
* Minor flooding is occurring and minor flooding is forecast.
* Flood stage is 10 feet.
* Forecast... the river will continue rising to near 12.8 feet by this
Tuesday evening.
* Impact... at 12.0 feet... lowland flooding will continue to slowly
diminish over the next several days.


Lat... Lon 3144 9462 3145 9474 3148 9482 3150 9482 3146 9466




1037 am CDT Tue Jun 2 2015

The Flood Warning continues for
the Attoyac Bayou near Chireno.
* Until late Friday night... or until the warning is cancelled.
* At 9:30 am Tuesday the stage was 16.2 feet.
* Minor flooding is occurring and minor flooding is forecast.
* Flood stage is 14.0 feet.
* Forecast... the river will continue to fall to below flood stage by
Friday morning.


Lat... Lon 3142 9432 3191 9451 3192 9447 3157 9429 3150 9430